Time;durP1;ratioP1;P1;durP2;ratioP2;P2;SDS_P1;SDS_P2;PMS_P1;PMS_P2;Temp;Humidity;BMP_temperature;BMP_pressure;BME280_temperature;BME280_humidity;BME280_pressure;Samples;Min_cycle;Max_cycle;Signal;HPM_P1;HPM_P2
2023/04/08 00:00:57;;;;;;;2.33;0.70;;;;;;;2.91;100.00;101210.66;4886295;29;20032;-95
2023/04/08 00:03:23;;;;;;;3.80;0.85;;;;;;;3.04;99.29;101206.22;4885637;29;20055;-96
2023/04/08 00:05:51;;;;;;;1.40;0.68;;;;;;;3.04;98.06;101206.22;4885855;29;20443;-96
2023/04/08 00:08:22;;;;;;;2.20;0.65;;;;;;;3.08;97.47;101213.00;4885870;29;20096;-96
2023/04/08 00:10:47;;;;;;;1.83;0.85;;;;;;;3.00;97.73;101211.38;4886412;29;20494;-96
2023/04/08 00:13:15;;;;;;;1.92;1.05;;;;;;;2.93;98.11;101206.41;4887228;29;20032;-96
2023/04/08 00:15:45;;;;;;;2.35;1.20;;;;;;;2.93;98.47;101209.78;4884874;29;20086;-96
2023/04/08 00:18:12;;;;;;;2.65;0.77;;;;;;;2.88;98.85;101201.34;4885640;29;20037;-96
2023/04/08 00:20:40;;;;;;;1.95;0.98;;;;;;;2.87;98.85;101214.09;4884548;29;20035;-96
2023/04/08 00:23:05;;;;;;;1.92;1.00;;;;;;;2.84;99.27;101212.44;4886268;29;20024;-96
2023/04/08 00:25:31;;;;;;;1.67;0.88;;;;;;;2.91;99.35;101210.66;4888599;29;20401;-96
2023/04/08 00:27:57;;;;;;;3.78;1.35;;;;;;;2.96;99.93;101212.28;4890533;29;20065;-96
2023/04/08 00:30:31;;;;;;;1.48;0.90;;;;;;;2.99;100.00;101222.44;4888652;29;20021;-96
2023/04/08 00:33:05;;;;;;;1.35;0.90;;;;;;;2.93;100.00;101209.78;4905127;29;20468;-96
2023/04/08 00:35:30;;;;;;;2.60;1.33;;;;;;;3.04;100.00;101221.53;4889272;29;20032;-96
2023/04/08 00:38:00;;;;;;;6.82;1.10;;;;;;;3.16;100.00;101214.53;4888174;29;20127;-96
2023/04/08 00:40:26;;;;;;;3.15;0.98;;;;;;;3.25;99.23;101220.41;4889881;29;20097;-96
2023/04/08 00:43:00;;;;;;;2.95;1.20;;;;;;;3.12;99.57;101220.56;4906053;29;20557;-96
2023/04/08 00:45:26;;;;;;;2.15;0.95;;;;;;;3.13;99.71;101223.97;4891087;29;20518;-96
2023/04/08 00:47:52;;;;;;;2.70;1.00;;;;;;;2.95;100.00;101218.25;4919750;29;20029;-96
2023/04/08 00:50:20;;;;;;;1.33;0.77;;;;;;;2.83;100.00;101212.44;4904783;29;20053;-95
2023/04/08 00:52:51;;;;;;;3.75;1.10;;;;;;;2.89;100.00;101237.88;4904833;29;20052;-95
2023/04/08 00:55:19;;;;;;;4.68;1.48;;;;;;;2.73;100.00;101211.72;4904848;29;20092;-95
2023/04/08 00:57:48;;;;;;;3.80;1.20;;;;;;;2.83;100.00;101215.88;4904303;29;20088;-95
2023/04/08 01:00:16;;;;;;;2.60;1.13;;;;;;;2.84;100.00;101229.47;4904177;29;20108;-94
2023/04/08 01:02:55;;;;;;;3.63;1.40;;;;;;;2.74;100.00;101221.91;4903617;29;20063;-94
2023/04/08 01:05:37;;;;;;;3.45;1.60;;;;;;;2.83;100.00;101233.72;4933918;29;20033;-94
2023/04/08 01:08:05;;;;;;;3.13;1.42;;;;;;;2.70;100.00;101216.88;4903757;29;20032;-94
2023/04/08 01:10:36;;;;;;;2.03;1.38;;;;;;;2.75;100.00;101220.19;4900517;29;20033;-95
2023/04/08 01:13:08;;;;;;;3.22;1.48;;;;;;;2.76;100.00;101229.56;4902520;29;20029;-96
2023/04/08 01:15:39;;;;;;;5.00;1.70;;;;;;;2.81;100.00;101220.13;4904173;29;20044;-96
2023/04/08 01:18:10;;;;;;;4.18;2.10;;;;;;;2.82;100.00;101216.72;4904303;29;20017;-96
2023/04/08 01:20:41;;;;;;;5.63;1.90;;;;;;;2.89;100.00;101230.22;4904533;29;20028;-96
2023/04/08 01:23:44;;;;;;;4.25;1.98;;;;;;;2.94;100.00;101238.66;4904297;29;20274;-96
2023/04/08 01:26:21;;;;;;;2.70;1.70;;;;;;;2.74;100.00;101226.19;4903061;29;20530;-95
2023/04/08 01:28:58;;;;;;;5.18;1.90;;;;;;;2.70;100.00;101221.97;4902232;29;20044;-96
2023/04/08 01:31:27;;;;;;;4.85;1.90;;;;;;;2.75;100.00;101236.34;4903021;29;20013;-95
2023/04/08 01:34:03;;;;;;;3.35;1.67;;;;;;;2.66;100.00;101222.84;4902948;29;20078;-95
2023/04/08 01:36:38;;;;;;;7.07;1.92;;;;;;;2.71;100.00;101233.88;4900477;29;20029;-96
2023/04/08 01:39:13;;;;;;;5.55;1.90;;;;;;;2.64;100.00;101222.91;4900747;29;20047;-95
2023/04/08 01:41:41;;;;;;;6.53;1.88;;;;;;;2.67;100.00;101239.84;4903203;29;20024;-95
2023/04/08 01:44:13;;;;;;;12.63;1.77;;;;;;;2.74;100.00;101239.75;4903198;29;20024;-96
2023/04/08 01:46:44;;;;;;;3.83;1.73;;;;;;;2.82;100.00;101237.13;4903762;29;20040;-96
2023/04/08 01:49:17;;;;;;;3.30;1.92;;;;;;;2.81;100.00;101245.63;4902841;29;20017;-96
2023/04/08 01:51:45;;;;;;;4.78;1.73;;;;;;;2.78;100.00;101245.69;4903381;29;20031;-96
2023/04/08 01:54:24;;;;;;;3.22;2.33;;;;;;;2.67;100.00;101230.50;4902659;29;20032;-95
2023/04/08 01:56:53;;;;;;;4.38;1.67;;;;;;;2.59;100.00;101232.31;4900503;29;20037;-96
2023/04/08 01:59:29;;;;;;;2.22;1.77;;;;;;;2.56;100.00;101235.72;4885191;29;20029;-95
2023/04/08 02:02:07;;;;;;;5.40;1.60;;;;;;;2.52;100.00;101249.34;4886532;29;20036;-96
2023/04/08 02:04:34;;;;;;;2.55;1.20;;;;;;;2.41;100.00;101240.97;4887388;29;20036;-96
2023/04/08 02:07:04;;;;;;;2.28;1.48;;;;;;;2.43;100.00;101241.81;4885906;29;20044;-96
2023/04/08 02:09:48;;;;;;;;;;;;;;;;;;;;;
2023/04/08 02:15:13;;;;;;;3.47;1.30;;;;;;;2.26;100.00;101243.69;4901827;29;20037;-96
2023/04/08 02:18:12;;;;;;;3.08;1.70;;;;;;;2.10;100.00;101240.47;4914634;29;20037;-96
2023/04/08 02:20:45;;;;;;;6.03;1.40;;;;;;;2.11;100.00;101253.16;4908118;29;20084;-95
2023/04/08 02:23:24;;;;;;;3.85;1.25;;;;;;;2.10;100.00;101256.59;4886461;29;20036;-96
2023/04/08 02:26:00;;;;;;;5.13;1.95;;;;;;;2.02;100.00;101237.13;4884594;29;20055;-95
2023/04/08 02:28:28;;;;;;;2.28;1.55;;;;;;;2.03;100.00;101239.69;4883362;29;20048;-96
2023/04/08 02:30:59;;;;;;;3.45;1.27;;;;;;;1.99;100.00;101237.16;4882709;29;20064;-96
2023/04/08 02:33:28;;;;;;;2.17;1.30;;;;;;;1.95;100.00;101251.63;4883165;29;20052;-96
2023/04/08 02:36:00;;;;;;;4.50;1.23;;;;;;;1.88;100.00;101247.47;4883447;29;20372;-96
2023/04/08 02:38:34;;;;;;;4.57;1.50;;;;;;;1.84;100.00;101243.25;4882792;29;20091;-96
2023/04/08 02:40:59;;;;;;;2.72;1.05;;;;;;;1.90;100.00;101238.09;4883435;29;20028;-96
2023/04/08 02:43:33;;;;;;;3.30;1.50;;;;;;;1.89;100.00;101256.78;4886764;29;20035;-96
2023/04/08 02:46:03;;;;;;;1.88;1.08;;;;;;;1.90;100.00;101264.41;4886418;29;20041;-96
2023/04/08 02:48:34;;;;;;;2.47;1.65;;;;;;;1.92;100.00;101259.28;4887671;29;20080;-96
2023/04/08 02:51:05;;;;;;;3.00;1.10;;;;;;;2.00;100.00;101254.13;4886909;29;20025;-96
2023/04/08 02:53:33;;;;;;;2.58;1.30;;;;;;;2.01;100.00;101264.31;4887238;29;20492;-96
2023/04/08 02:56:05;;;;;;;3.67;1.00;;;;;;;1.98;100.00;101266.88;4887547;29;20060;-96
2023/04/08 02:58:33;;;;;;;2.53;1.58;;;;;;;1.97;100.00;101265.19;4886089;29;20040;-95
2023/04/08 03:01:04;;;;;;;2.22;1.10;;;;;;;1.87;100.00;101250.84;4888511;29;20399;-96
2023/04/08 03:03:32;;;;;;;3.03;1.17;;;;;;;1.83;100.00;101256.81;4886573;29;20111;-96
2023/04/08 03:06:00;;;;;;;2.35;1.20;;;;;;;1.84;100.00;101274.63;4886849;29;20046;-96
2023/04/08 03:08:29;;;;;;;2.75;1.17;;;;;;;1.87;100.00;101278.84;4885202;29;20029;-95
2023/04/08 03:10:54;;;;;;;5.03;1.25;;;;;;;1.79;100.00;101260.25;4887493;29;20036;-95
2023/04/08 03:13:23;;;;;;;4.20;1.30;;;;;;;1.86;100.00;101267.00;4885403;29;20471;-96
2023/04/08 03:15:49;;;;;;;2.60;0.93;;;;;;;1.77;100.00;101261.97;4886302;29;20052;-96
2023/04/08 03:18:21;;;;;;;2.17;0.88;;;;;;;1.71;100.00;101263.69;4885091;29;20056;-96
2023/04/08 03:20:46;;;;;;;;;;;;;;;1.74;100.00;101277.25;4886613;29;20028;-96
2023/04/08 03:23:12;;;;;;;2.30;1.00;;;;;;;1.71;100.00;101281.53;4885746;29;19916;-96
2023/04/08 03:25:50;;;;;;;2.22;0.93;;;;;;;1.54;100.00;101259.56;4886253;29;20024;-96
2023/04/08 03:28:18;;;;;;;5.38;1.10;;;;;;;1.55;100.00;101267.22;4889730;29;20029;-95
2023/04/08 03:30:48;;;;;;;1.05;0.90;;;;;;;1.49;100.00;101267.25;4890505;29;20033;-94
2023/04/08 03:33:16;;;;;;;0.75;0.73;;;;;;;1.48;100.00;101276.56;4891195;29;20037;-95
2023/04/08 03:35:44;;;;;;;2.15;0.85;;;;;;;1.45;100.00;101270.69;4889324;29;20029;-95
2023/04/08 03:38:24;;;;;;;2.72;0.85;;;;;;;1.46;100.00;101282.53;4890062;29;20037;-95
2023/04/08 03:40:56;;;;;;;2.20;0.90;;;;;;;1.27;100.00;101259.75;4888988;29;20443;-95
2023/04/08 03:43:34;;;;;;;2.88;1.20;;;;;;;1.31;100.00;101278.38;4889624;29;20044;-96
2023/04/08 03:46:02;;;;;;;2.00;0.73;;;;;;;1.23;100.00;101275.03;4888726;29;20108;-96
2023/04/08 03:48:28;;;;;;;1.55;0.90;;;;;;;1.21;100.00;101282.66;4890579;29;20068;-95
2023/04/08 03:50:56;;;;;;;1.05;0.88;;;;;;;1.10;100.00;101274.28;4890693;29;20049;-95
2023/04/08 03:53:28;;;;;;;2.90;0.90;;;;;;;1.09;100.00;101280.19;4885413;29;20025;-95
2023/04/08 03:56:06;;;;;;;2.15;1.00;;;;;;;1.32;100.00;101292.81;4884578;29;20180;-95
2023/04/08 03:58:34;;;;;;;1.92;1.20;;;;;;;1.17;100.00;101270.84;4885188;29;20041;-96
2023/04/08 04:01:03;;;;;;;2.80;1.55;;;;;;;1.28;100.00;101274.16;4885225;29;20040;-95
2023/04/08 04:03:29;;;;;;;3.08;0.90;;;;;;;1.26;100.00;101288.56;4885643;29;20029;-96
2023/04/08 04:05:57;;;;;;;1.75;0.70;;;;;;;1.28;100.00;101288.56;4885766;29;20110;-95
2023/04/08 04:08:31;;;;;;;8.38;1.10;;;;;;;1.39;100.00;101301.22;4885929;29;20025;-95
2023/04/08 04:11:00;;;;;;;4.75;0.98;;;;;;;1.35;100.00;101290.22;4886624;29;20036;-96
2023/04/08 04:13:26;;;;;;;4.90;0.80;;;;;;;1.52;100.00;101302.84;4885114;29;20073;-96
2023/04/08 04:15:57;;;;;;;6.13;0.90;;;;;;;1.52;100.00;101294.38;4883977;29;20040;-96
2023/04/08 04:18:33;;;;;;;1.85;0.90;;;;;;;1.52;100.00;101307.94;4884654;29;20024;-95
2023/04/08 04:21:05;;;;;;;2.22;0.90;;;;;;;1.51;100.00;101311.31;4883932;29;20043;-95
2023/04/08 04:23:38;;;;;;;3.47;1.10;;;;;;;1.32;100.00;101302.09;4884450;29;20035;-96
2023/04/08 04:26:24;;;;;;;2.80;0.70;;;;;;;1.36;100.00;101321.59;4884542;29;20040;-96
2023/04/08 04:28:53;;;;;;;4.75;1.00;;;;;;;1.24;100.00;101300.47;4883115;29;20044;-96
2023/04/08 04:31:25;;;;;;;1.77;0.93;;;;;;;1.41;100.00;101320.72;4883683;29;20123;-96
2023/04/08 04:33:51;;;;;;;3.55;1.30;;;;;;;1.42;100.00;101316.50;4884015;29;20028;-95
2023/04/08 04:36:23;;;;;;;1.65;1.10;;;;;;;1.43;100.00;101323.25;4883463;29;20055;-96
2023/04/08 04:39:12;;;;;;;4.45;1.20;;;;;;;1.31;100.00;101306.34;4884357;29;20510;-96
2023/04/08 04:41:43;;;;;;;1.58;0.95;;;;;;;1.26;100.00;101306.38;4884202;29;20119;-96
2023/04/08 04:44:09;;;;;;;3.67;1.30;;;;;;;1.31;100.00;101313.13;4884510;29;20020;-96
2023/04/08 04:46:41;;;;;;;3.42;1.15;;;;;;;1.32;100.00;101309.72;4899791;29;20040;-96
2023/04/08 04:49:06;;;;;;;2.47;1.23;;;;;;;1.45;100.00;101327.47;4915721;29;20108;-95
2023/04/08 04:51:49;;;;;;;3.70;1.10;;;;;;;1.34;100.00;101315.66;4885590;29;20142;-96
2023/04/08 04:54:23;;;;;;;1.67;1.00;;;;;;;1.29;100.00;101315.69;4884286;29;20041;-96
2023/04/08 04:56:52;;;;;;;4.00;1.10;;;;;;;1.25;100.00;101319.13;4885323;29;20036;-96
2023/04/08 04:59:18;;;;;;;3.00;1.30;;;;;;;1.19;100.00;101325.06;4884331;29;20479;-96
2023/04/08 05:01:46;;;;;;;1.60;1.02;;;;;;;1.20;100.00;101331.00;4885088;29;20032;-95
2023/04/08 05:04:11;;;;;;;1.85;0.95;;;;;;;1.12;100.00;101320.84;4886716;29;20451;-96
2023/04/08 05:06:37;;;;;;;2.85;1.10;;;;;;;1.13;100.00;101335.25;4883749;29;20070;-96
2023/04/08 05:09:08;;;;;;;3.25;1.00;;;;;;;1.06;100.00;101336.13;4899628;29;20036;-96
2023/04/08 05:11:36;;;;;;;1.42;1.13;;;;;;;0.99;100.00;101347.19;4885142;29;20031;-96
2023/04/08 05:14:04;;;;;;;3.70;1.67;;;;;;;1.07;100.00;101340.34;4883623;29;20432;-96
2023/04/08 05:16:30;;;;;;;2.03;1.08;;;;;;;1.17;100.00;101352.22;4883453;29;20033;-95
2023/04/08 05:18:55;;;;;;;3.03;1.27;;;;;;;1.21;100.00;101342.84;4884041;29;20061;-96
2023/04/08 05:21:24;;;;;;;2.80;1.00;;;;;;;1.25;100.00;101350.47;4885865;29;20031;-96
2023/04/08 05:23:52;;;;;;;1.60;1.08;;;;;;;1.23;100.00;101339.47;4884710;29;20042;-96
2023/04/08 05:26:20;;;;;;;1.35;0.98;;;;;;;1.19;100.00;101350.47;4884023;29;20067;-96
2023/04/08 05:28:50;;;;;;;4.07;1.10;;;;;;;1.24;100.00;101361.50;4883535;29;20052;-95
2023/04/08 05:31:16;;;;;;;2.58;1.13;;;;;;;1.21;100.00;101364.03;4884259;29;20043;-96
2023/04/08 05:33:42;;;;;;;1.73;1.08;;;;;;;1.23;100.00;101347.09;4882908;29;20032;-96
2023/04/08 05:36:12;;;;;;;1.30;0.80;;;;;;;1.33;100.00;101358.06;4883520;29;20031;-96
2023/04/08 05:38:41;;;;;;;1.65;1.20;;;;;;;1.37;100.00;101369.91;4884590;29;20032;-96
2023/04/08 05:41:17;;;;;;;4.05;1.05;;;;;;;1.32;100.00;101370.78;4887570;29;20036;-95
2023/04/08 05:43:53;;;;;;;1.85;1.20;;;;;;;1.24;100.00;101364.06;4884963;29;20487;-96
2023/04/08 05:46:33;;;;;;;3.00;0.85;;;;;;;1.28;100.00;101375.88;4887957;29;20031;-96
2023/04/08 05:49:03;;;;;;;2.50;1.00;;;;;;;1.20;100.00;101362.38;4888110;29;20029;-96
2023/04/08 05:51:35;;;;;;;1.48;0.95;;;;;;;1.24;100.00;101366.59;4883851;29;20236;-96
2023/04/08 05:54:03;;;;;;;2.75;1.20;;;;;;;1.26;100.00;101367.41;4883291;29;20029;-96
2023/04/08 05:56:30;;;;;;;6.13;1.30;;;;;;;1.30;100.00;101369.97;4882744;29;20037;-96
2023/04/08 05:58:59;;;;;;;2.53;1.27;;;;;;;1.27;100.00;101370.81;4883212;29;20029;-96
2023/04/08 06:01:25;;;;;;;2.83;1.20;;;;;;;1.28;100.00;101375.88;4883843;29;20029;-95
2023/04/08 06:03:51;;;;;;;3.10;1.10;;;;;;;1.34;100.00;101379.25;4883149;29;20057;-96
2023/04/08 06:06:19;;;;;;;2.75;1.20;;;;;;;1.31;100.00;101376.72;4882385;29;20043;-96
2023/04/08 06:08:50;;;;;;;3.65;1.42;;;;;;;1.39;100.00;101392.78;4882490;29;20032;-96
2023/04/08 06:11:19;;;;;;;2.08;1.10;;;;;;;1.40;100.00;101382.63;4883323;29;20040;-96
2023/04/08 06:13:45;;;;;;;4.32;1.30;;;;;;;1.41;100.00;101378.38;4914196;29;20087;-96
2023/04/08 06:16:19;;;;;;;3.33;1.33;;;;;;;1.50;100.00;101370.69;4884157;29;20036;-96
2023/04/08 06:18:48;;;;;;;1.90;1.10;;;;;;;1.55;100.00;101378.31;4887656;29;20040;-96
2023/04/08 06:21:16;;;;;;;2.88;1.25;;;;;;;1.68;100.00;101385.88;4888033;29;20037;-96
2023/04/08 06:23:42;;;;;;;3.78;1.02;;;;;;;1.81;100.00;101384.09;4887503;29;20498;-96
2023/04/08 06:26:10;;;;;;;5.00;1.00;;;;;;;1.88;100.00;101382.38;4888287;29;20032;-96
2023/04/08 06:28:37;;;;;;;2.03;1.10;;;;;;;2.14;100.00;101377.91;4887028;29;20403;-96
2023/04/08 06:31:09;;;;;;;1.50;0.88;;;;;;;2.37;100.00;101394.75;4888095;29;20031;-95
2023/04/08 06:33:44;;;;;;;1.45;1.00;;;;;;;2.40;100.00;101374.34;4886785;29;20063;-96
2023/04/08 06:36:12;;;;;;;1.83;0.95;;;;;;;2.64;100.00;101387.72;4886966;29;20037;-95
2023/04/08 06:38:37;;;;;;;2.97;0.70;;;;;;;2.85;100.00;101395.13;4885867;29;20116;-96
2023/04/08 06:41:09;;;;;;;1.38;0.90;;;;;;;3.11;100.00;101396.59;4886791;29;20131;-96
2023/04/08 06:43:43;;;;;;;1.33;0.98;;;;;;;3.25;100.00;101392.16;4887306;29;20021;-96
2023/04/08 06:46:11;;;;;;;3.88;0.90;;;;;;;3.50;100.00;101409.72;4886582;29;20039;-96
2023/04/08 06:48:37;;;;;;;2.05;1.38;;;;;;;3.71;100.00;101391.59;4886622;29;20468;-96
2023/04/08 06:51:06;;;;;;;9.35;2.10;;;;;;;3.97;100.00;101405.69;4901728;29;20285;-96
2023/04/08 06:53:37;;;;;;;4.00;2.28;;;;;;;4.14;100.00;101400.31;4887118;29;20379;-96
2023/04/08 06:56:21;;;;;;;5.75;1.95;;;;;;;4.44;100.00;101399.00;4887435;29;20028;-96
2023/04/08 06:58:57;;;;;;;11.02;2.40;;;;;;;4.80;100.00;101414.56;4886767;29;20084;-96
2023/04/08 07:01:34;;;;;;;5.15;2.38;;;;;;;5.14;100.00;101407.09;4886984;29;20479;-96
2023/04/08 07:04:18;;;;;;;2.58;1.88;;;;;;;5.38;100.00;101410.06;4885302;29;20032;-96
2023/04/08 07:06:52;;;;;;;3.38;1.70;;;;;;;5.57;100.00;101412.22;4886834;29;20036;-96
2023/04/08 07:09:24;;;;;;;6.72;2.20;;;;;;;5.74;97.73;101411.00;4885636;29;20025;-96
2023/04/08 07:11:57;;;;;;;3.05;2.22;;;;;;;6.04;96.75;101418.94;4887888;29;20040;-96
2023/04/08 07:14:35;;;;;;;4.85;2.25;;;;;;;6.30;93.75;101411.47;4904191;29;20056;-96
2023/04/08 07:17:10;;;;;;;1.50;1.38;;;;;;;6.76;92.01;101430.84;4890800;29;20646;-96
2023/04/08 07:19:36;;;;;;;3.35;1.40;;;;;;;6.99;90.57;101416.56;4886039;29;20028;-96
2023/04/08 07:22:14;;;;;;;2.75;1.63;;;;;;;7.37;89.12;101412.13;4887077;29;20127;-96
2023/04/08 07:24:48;;;;;;;5.72;2.13;;;;;;;7.74;83.65;101427.28;4887362;29;20509;-96
2023/04/08 07:27:20;;;;;;;1.98;1.30;;;;;;;8.09;81.33;101420.22;4886911;29;20036;-96
2023/04/08 07:29:55;;;;;;;;;;;;;;;8.48;81.07;101436.13;4902429;29;20040;-96
2023/04/08 07:32:31;;;;;;;2.13;1.17;;;;;;;8.75;79.35;101429.25;4885988;29;19915;-96
2023/04/08 07:35:27;;;;;;;3.25;1.45;;;;;;;9.01;72.27;101435.22;4886308;29;20033;-96
2023/04/08 07:37:59;;;;;;;2.30;1.60;;;;;;;9.48;68.98;101427.50;4887832;29;20229;-96
2023/04/08 07:40:29;;;;;;;;;;;;;;;10.23;67.37;101449.59;4901324;29;20052;-96
2023/04/08 07:43:17;;;;;;;2.50;1.45;;;;;;;10.84;65.47;101454.00;4885903;29;20190;-96
2023/04/08 07:45:57;;;;;;;3.63;1.95;;;;;;;11.44;63.74;101439.34;4884371;29;20032;-96
2023/04/08 07:48:28;;;;;;;4.85;2.38;;;;;;;12.02;59.73;101455.69;4884524;29;20040;-96
2023/04/08 07:51:09;;;;;;;7.75;2.20;;;;;;;12.31;58.42;101455.13;4884540;29;20047;-96
2023/04/08 07:53:40;;;;;;;4.35;1.77;;;;;;;12.70;58.08;101450.66;4884094;29;20036;-96
2023/04/08 07:56:14;;;;;;;6.15;1.67;;;;;;;13.06;58.08;101463.50;4885190;29;20173;-96
2023/04/08 07:58:50;;;;;;;6.78;2.42;;;;;;;13.46;56.08;101466.63;4900241;29;20033;-96
2023/04/08 08:01:29;;;;;;;4.57;2.17;;;;;;;13.79;54.82;101460.56;4883825;29;20037;-96
2023/04/08 08:04:42;;;;;;;9.27;2.53;;;;;;;14.29;51.39;101470.72;4886006;29;20032;-96
2023/04/08 08:10:53;;;;;;;3.33;1.75;;;;;;;16.96;44.80;101468.16;4902753;29;20037;-96
2023/04/08 08:13:50;;;;;;;4.53;2.53;;;;;;;18.01;45.18;101480.00;4890005;29;20047;-96
2023/04/08 08:16:22;;;;;;;5.03;1.85;;;;;;;18.09;40.66;101478.50;4906487;29;20032;-96
2023/04/08 08:19:06;;;;;;;;;;;;;;;;;;;;;
2023/04/08 08:22:15;;;;;;;5.55;1.45;;;;;;;19.96;37.92;101492.19;4908914;29;20131;-96
2023/04/08 08:35:15;;;;;;;4.65;1.38;;;;;;;20.49;35.80;101494.84;4915851;29;20035;-96
2023/04/08 08:41:36;;;;;;;2.90;1.23;;;;;;;21.67;35.50;101505.03;4822438;29;20254;-96
2023/04/08 08:44:35;;;;;;;;;;;;;;;;;;;;;
2023/04/08 08:47:24;;;;;;;3.35;1.25;;;;;;;21.83;34.33;101493.19;4870049;29;20143;-96
2023/04/08 08:50:11;;;;;;;4.40;1.92;;;;;;;21.96;36.15;101499.81;4905979;29;20040;-96
2023/04/08 08:53:19;;;;;;;7.53;1.90;;;;;;;22.53;33.20;101494.75;4892932;29;20100;-96
2023/04/08 08:56:19;;;;;;;4.05;1.63;;;;;;;22.11;34.13;101504.69;4891996;29;20036;-96
2023/04/08 08:59:21;;;;;;;;;;;;;;;;;;;;;
2023/04/08 09:02:20;;;;;;;3.67;1.38;;;;;;;23.56;31.42;101494.88;4915977;29;20047;-96
2023/04/08 09:04:59;;;;;;;3.67;1.10;;;;;;;23.44;32.60;101508.22;4909379;29;20403;-96
2023/04/08 09:20:02;;;;;;;4.57;1.40;;;;;;;23.60;32.67;101509.38;5404158;23;20573;-96
2023/04/08 09:23:44;;;;;;;2.35;1.40;;;;;;;24.18;31.25;101505.56;4925222;29;20039;-96
2023/04/08 09:27:12;;;;;;;2.08;1.35;;;;;;;23.31;32.03;101507.72;4911462;29;20043;-96
2023/04/08 09:30:32;;;;;;;3.35;1.50;;;;;;;24.54;30.69;101507.22;4853817;29;20515;-96
2023/04/08 09:33:24;;;;;;;2.80;1.42;;;;;;;24.22;31.63;101510.41;4849512;29;20037;-96
2023/04/08 09:35:53;;;;;;;3.50;1.40;;;;;;;25.15;29.92;101505.47;4907932;29;20056;-96
2023/04/08 09:38:57;;;;;;;3.05;1.40;;;;;;;23.99;31.56;101501.25;4906108;29;20096;-96
2023/04/08 09:45:04;;;;;;;2.80;1.30;;;;;;;24.65;31.63;101521.16;4914590;29;20044;-95
2023/04/08 09:48:08;;;;;;;3.33;1.42;;;;;;;24.67;30.83;101509.44;4908571;29;20044;-96
2023/04/08 09:54:11;;;;;;;1.70;1.05;;;;;;;23.36;31.69;101518.69;4926455;29;20032;-96
2023/04/08 09:57:34;;;;;;;2.90;1.70;;;;;;;24.18;31.90;101522.22;4883490;29;20028;-96
2023/04/08 10:00:09;;;;;;;5.03;1.50;;;;;;;24.60;31.66;101512.88;4926764;29;20044;-96
2023/04/08 10:03:20;;;;;;;3.70;1.20;;;;;;;24.76;31.90;101516.44;4913432;29;20044;-96
2023/04/08 10:06:11;;;;;;;3.08;1.50;;;;;;;24.47;33.03;101515.91;4912896;29;20044;-96
2023/04/08 10:09:17;;;;;;;1.65;0.82;;;;;;;25.28;31.67;101514.78;4913544;29;20099;-96
2023/04/08 10:12:41;;;;;;;3.03;1.45;;;;;;;26.29;30.23;101512.09;4912320;29;20036;-96
2023/04/08 10:15:52;;;;;;;;;;;;;;;;;;;;;
2023/04/08 10:19:01;;;;;;;;;;;;;;;;;;;;;
2023/04/08 10:22:11;;;;;;;4.85;1.63;;;;;;;24.39;31.06;101514.00;4829521;29;20102;-96
2023/04/08 10:28:46;;;;;;;;;;;;;;;;;;;;;
2023/04/08 10:36:11;;;;;;;6.28;1.88;;;;;;;24.08;31.43;101510.91;4896144;29;20531;-96
2023/04/08 10:38:16;;;;;;;4.50;1.58;;;;;;;24.15;31.02;101501.44;4878347;29;20045;-96
2023/04/08 10:40:48;;;;;;;4.53;1.70;;;;;;;23.71;31.59;101498.66;4873149;29;20181;-96
2023/04/08 10:43:30;;;;;;;5.95;2.35;;;;;;;23.40;34.02;101500.75;4869022;29;20033;-96
2023/04/08 10:46:11;;;;;;;3.05;1.70;;;;;;;24.12;31.45;101496.47;4885209;29;20400;-96
2023/04/08 10:48:42;;;;;;;7.70;2.47;;;;;;;23.77;32.66;101497.25;4870146;29;20037;-96
2023/04/08 10:51:17;;;;;;;3.70;1.80;;;;;;;23.50;34.13;101501.53;4870513;29;20029;-96
2023/04/08 10:53:42;;;;;;;2.67;1.83;;;;;;;23.80;33.37;101492.53;4870678;29;20312;-96
2023/04/08 10:56:58;;;;;;;5.35;2.20;;;;;;;23.41;32.25;101482.19;4870244;29;20025;-96
2023/04/08 10:59:43;;;;;;;3.83;2.17;;;;;;;23.00;32.79;101492.19;4881276;29;20043;-96
2023/04/08 11:02:39;;;;;;;3.90;1.88;;;;;;;23.63;33.00;101490.63;4869415;29;20060;-96
2023/04/08 11:05:17;;;;;;;3.65;1.50;;;;;;;22.12;35.68;101488.78;4885480;29;20047;-96
2023/04/08 11:07:49;;;;;;;3.88;1.58;;;;;;;22.52;34.54;101487.00;4908083;29;20055;-96
2023/04/08 11:10:22;;;;;;;4.45;2.72;;;;;;;22.74;33.80;101472.69;4908166;29;20031;-96
2023/04/08 11:13:13;;;;;;;3.78;1.85;;;;;;;22.52;33.99;101469.41;4887154;29;20037;-96
2023/04/08 11:16:07;;;;;;;;;;;;;;;;;;;;;
2023/04/08 11:18:53;;;;;;;5.43;1.90;;;;;;;21.83;34.60;101480.88;4886181;29;20128;-96
2023/04/08 11:21:45;;;;;;;3.80;1.48;;;;;;;21.21;35.63;101472.22;4889149;29;20028;-96
2023/04/08 11:24:32;;;;;;;3.70;2.13;;;;;;;21.31;36.00;101472.25;4872399;29;20128;-96
2023/04/08 11:27:17;;;;;;;3.17;1.60;;;;;;;20.70;35.98;101471.28;4869468;29;20045;-96
2023/04/08 11:29:57;;;;;;;6.20;1.90;;;;;;;20.56;37.27;101460.28;4886313;29;20041;-96
2023/04/08 11:32:44;;;;;;;3.13;2.00;;;;;;;22.09;35.21;101473.25;4888893;29;20036;-96
2023/04/08 11:35:37;;;;;;;4.88;1.90;;;;;;;21.86;32.92;101461.38;4886904;29;20491;-96
2023/04/08 11:38:17;;;;;;;3.88;2.25;;;;;;;22.39;32.47;101474.97;4872125;29;20048;-96
2023/04/08 11:41:15;;;;;;;6.15;2.10;;;;;;;22.10;34.06;101459.16;4874015;29;20033;-96
2023/04/08 11:44:01;;;;;;;2.50;1.75;;;;;;;22.32;33.06;101467.78;4887636;29;20040;-96
2023/04/08 11:46:27;;;;;;;4.03;2.38;;;;;;;21.30;34.36;101468.81;4907272;29;20048;-96
2023/04/08 11:49:12;;;;;;;4.32;2.33;;;;;;;21.25;34.65;101463.13;4906929;29;20083;-96
2023/04/08 11:52:03;;;;;;;3.33;2.08;;;;;;;21.44;33.72;101466.81;4905291;29;20119;-96
2023/04/08 11:58:36;;;;;;;5.35;2.30;;;;;;;21.79;34.24;101442.69;4899759;29;20119;-96
2023/04/08 12:01:32;;;;;;;6.10;2.00;;;;;;;22.30;31.60;101444.22;4889382;29;20064;-96
2023/04/08 12:04:13;;;;;;;;;;;;;;;;;;;;;
2023/04/08 12:07:09;;;;;;;4.25;2.25;;;;;;;23.42;29.23;101457.47;4905320;29;20115;-96
2023/04/08 12:12:59;;;;;;;4.72;2.97;;;;;;;22.88;29.88;101443.28;4900696;29;20116;-96
2023/04/08 12:19:01;;;;;;;3.97;2.30;;;;;;;22.16;31.32;101458.59;4911163;29;20079;-96
2023/04/08 12:21:29;;;;;;;2.85;1.90;;;;;;;21.65;31.73;101443.91;4906583;29;20036;-96
2023/04/08 12:24:00;;;;;;;3.38;1.92;;;;;;;20.54;33.23;101457.75;4905452;29;20032;-96
2023/04/08 12:26:25;;;;;;;8.00;2.60;;;;;;;19.29;35.60;101451.22;4906488;29;20087;-96
2023/04/08 12:28:56;;;;;;;4.07;2.10;;;;;;;18.85;35.79;101450.25;4905381;29;20039;-96
2023/04/08 12:31:31;;;;;;;4.43;2.70;;;;;;;18.97;37.39;101451.06;4904777;29;20032;-96
2023/04/08 12:34:08;;;;;;;3.88;2.25;;;;;;;18.22;37.08;101451.50;4902759;29;20040;-96
2023/04/08 12:36:36;;;;;;;4.22;2.30;;;;;;;19.07;35.95;101433.75;4904049;29;20067;-96
2023/04/08 12:39:21;;;;;;;5.20;3.05;;;;;;;19.59;35.24;101434.88;4907487;29;20036;-96
2023/04/08 12:42:04;;;;;;;7.75;2.20;;;;;;;20.55;33.14;101417.47;4907080;29;20024;-96
2023/04/08 12:44:41;;;;;;;6.45;3.55;;;;;;;20.56;33.54;101437.53;4904862;29;20032;-96
2023/04/08 12:50:22;;;;;;;8.10;2.20;;;;;;;20.27;32.97;101434.66;4902301;29;20104;-96
2023/04/08 12:52:54;;;;;;;3.83;2.10;;;;;;;20.61;31.93;101431.88;4902460;29;20026;-96
2023/04/08 12:55:23;;;;;;;4.13;2.00;;;;;;;20.69;32.52;101439.94;4903874;29;20055;-95
2023/04/08 12:58:12;;;;;;;7.25;2.75;;;;;;;20.42;33.61;101438.63;4903566;29;20064;-96
2023/04/08 13:00:45;;;;;;;3.80;2.00;;;;;;;21.89;30.49;101429.53;4921291;29;20032;-96
2023/04/08 13:03:37;;;;;;;4.40;2.10;;;;;;;21.78;30.10;101433.16;4905466;29;20025;-96
2023/04/08 13:06:03;;;;;;;4.03;2.00;;;;;;;21.78;30.33;101433.97;4904666;29;20115;-96
2023/04/08 13:08:36;;;;;;;2.83;1.48;;;;;;;22.71;30.03;101417.72;4906885;29;20032;-96
2023/04/08 13:11:02;;;;;;;2.45;1.35;;;;;;;23.32;27.89;101427.72;4905605;29;20127;-96
2023/04/08 13:13:27;;;;;;;2.55;1.63;;;;;;;22.59;28.96;101419.69;4903423;29;20052;-96
2023/04/08 13:15:53;;;;;;;3.42;1.33;;;;;;;23.47;28.74;101423.59;4902155;29;20027;-96
2023/04/08 13:18:24;;;;;;;2.85;1.23;;;;;;;23.95;28.49;101432.19;4903625;29;20091;-96
2023/04/08 13:20:53;;;;;;;1.48;1.20;;;;;;;23.98;26.41;101420.50;4903826;29;20072;-96
2023/04/08 13:23:26;;;;;;;3.28;1.48;;;;;;;23.87;27.20;101421.56;4903236;29;20036;-96